sensor_id;sensor_type;location;lat;lon;timestamp;P1;durP1;ratioP1;P2;durP2;ratioP2
5195;SDS011;2617;51.006;12.436;2022-12-18T00:00:33;14.73;;;8.10;;
5195;SDS011;2617;51.006;12.436;2022-12-18T00:05:36;15.67;;;7.77;;
5195;SDS011;2617;51.006;12.436;2022-12-18T00:10:38;21.63;;;11.60;;
5195;SDS011;2617;51.006;12.436;2022-12-18T00:15:40;11.60;;;7.40;;
5195;SDS011;2617;51.006;12.436;2022-12-18T00:20:41;13.00;;;7.50;;
5195;SDS011;2617;51.006;12.436;2022-12-18T00:25:43;13.95;;;8.45;;
5195;SDS011;2617;51.006;12.436;2022-12-18T00:30:45;14.33;;;7.60;;
5195;SDS011;2617;51.006;12.436;2022-12-18T00:35:46;16.37;;;7.80;;
5195;SDS011;2617;51.006;12.436;2022-12-18T00:40:49;11.82;;;7.82;;
5195;SDS011;2617;51.006;12.436;2022-12-18T00:45:51;11.67;;;7.50;;
5195;SDS011;2617;51.006;12.436;2022-12-18T00:50:52;14.43;;;8.60;;
5195;SDS011;2617;51.006;12.436;2022-12-18T00:55:54;11.63;;;6.30;;
5195;SDS011;2617;51.006;12.436;2022-12-18T01:00:56;12.50;;;6.27;;
5195;SDS011;2617;51.006;12.436;2022-12-18T01:05:58;10.30;;;6.37;;
5195;SDS011;2617;51.006;12.436;2022-12-18T01:11:01;14.80;;;7.87;;
5195;SDS011;2617;51.006;12.436;2022-12-18T01:16:03;13.87;;;7.67;;
5195;SDS011;2617;51.006;12.436;2022-12-18T01:21:06;12.37;;;5.93;;
5195;SDS011;2617;51.006;12.436;2022-12-18T01:26:10;10.77;;;4.33;;
5195;SDS011;2617;51.006;12.436;2022-12-18T01:31:15;13.77;;;5.80;;
5195;SDS011;2617;51.006;12.436;2022-12-18T01:36:22;11.37;;;6.60;;
5195;SDS011;2617;51.006;12.436;2022-12-18T01:41:24;8.43;;;5.90;;
5195;SDS011;2617;51.006;12.436;2022-12-18T01:46:26;10.57;;;6.30;;
5195;SDS011;2617;51.006;12.436;2022-12-18T01:51:28;8.65;;;5.40;;
5195;SDS011;2617;51.006;12.436;2022-12-18T01:56:29;11.00;;;5.70;;
5195;SDS011;2617;51.006;12.436;2022-12-18T02:01:31;11.27;;;6.23;;
5195;SDS011;2617;51.006;12.436;2022-12-18T02:06:34;7.47;;;4.53;;
5195;SDS011;2617;51.006;12.436;2022-12-18T02:11:53;12.40;;;5.73;;
5195;SDS011;2617;51.006;12.436;2022-12-18T02:17:00;8.53;;;5.40;;
5195;SDS011;2617;51.006;12.436;2022-12-18T02:22:17;8.17;;;5.37;;
5195;SDS011;2617;51.006;12.436;2022-12-18T02:27:18;8.73;;;5.67;;
5195;SDS011;2617;51.006;12.436;2022-12-18T02:32:22;8.90;;;5.97;;
5195;SDS011;2617;51.006;12.436;2022-12-18T02:37:22;4.73;;;4.20;;
5195;SDS011;2617;51.006;12.436;2022-12-18T02:42:24;6.13;;;4.33;;
5195;SDS011;2617;51.006;12.436;2022-12-18T02:47:28;12.88;;;5.07;;
5195;SDS011;2617;51.006;12.436;2022-12-18T02:52:31;6.03;;;4.20;;
5195;SDS011;2617;51.006;12.436;2022-12-18T02:57:54;5.87;;;4.50;;
5195;SDS011;2617;51.006;12.436;2022-12-18T03:02:59;6.28;;;4.80;;
5195;SDS011;2617;51.006;12.436;2022-12-18T03:08:06;9.40;;;4.90;;
5195;SDS011;2617;51.006;12.436;2022-12-18T03:13:12;7.60;;;4.60;;
5195;SDS011;2617;51.006;12.436;2022-12-18T03:18:14;10.87;;;6.73;;
5195;SDS011;2617;51.006;12.436;2022-12-18T03:23:15;7.87;;;5.07;;
5195;SDS011;2617;51.006;12.436;2022-12-18T03:28:19;9.07;;;6.35;;
5195;SDS011;2617;51.006;12.436;2022-12-18T03:33:19;4.67;;;3.27;;
5195;SDS011;2617;51.006;12.436;2022-12-18T03:38:21;5.67;;;2.97;;
5195;SDS011;2617;51.006;12.436;2022-12-18T03:43:29;4.78;;;2.72;;
5195;SDS011;2617;51.006;12.436;2022-12-18T03:48:33;4.30;;;3.50;;
5195;SDS011;2617;51.006;12.436;2022-12-18T03:53:37;4.90;;;4.30;;
5195;SDS011;2617;51.006;12.436;2022-12-18T03:58:37;4.17;;;3.77;;
5195;SDS011;2617;51.006;12.436;2022-12-18T04:03:39;8.13;;;4.77;;
5195;SDS011;2617;51.006;12.436;2022-12-18T04:08:41;10.57;;;4.78;;
5195;SDS011;2617;51.006;12.436;2022-12-18T04:13:44;4.70;;;3.43;;
5195;SDS011;2617;51.006;12.436;2022-12-18T04:18:45;4.20;;;3.20;;
5195;SDS011;2617;51.006;12.436;2022-12-18T04:23:47;3.10;;;2.50;;
5195;SDS011;2617;51.006;12.436;2022-12-18T04:28:49;11.87;;;6.20;;
5195;SDS011;2617;51.006;12.436;2022-12-18T04:33:50;9.73;;;6.30;;
5195;SDS011;2617;51.006;12.436;2022-12-18T04:38:52;9.32;;;6.05;;
5195;SDS011;2617;51.006;12.436;2022-12-18T04:43:55;9.67;;;5.47;;
5195;SDS011;2617;51.006;12.436;2022-12-18T04:48:57;3.37;;;2.33;;
5195;SDS011;2617;51.006;12.436;2022-12-18T04:53:58;4.80;;;3.15;;
5195;SDS011;2617;51.006;12.436;2022-12-18T04:59:00;4.53;;;2.67;;
5195;SDS011;2617;51.006;12.436;2022-12-18T05:04:02;3.60;;;2.30;;
5195;SDS011;2617;51.006;12.436;2022-12-18T05:09:04;2.90;;;2.30;;
5195;SDS011;2617;51.006;12.436;2022-12-18T05:14:06;7.05;;;4.15;;
5195;SDS011;2617;51.006;12.436;2022-12-18T05:19:08;4.07;;;2.80;;
5195;SDS011;2617;51.006;12.436;2022-12-18T05:24:10;4.07;;;3.20;;
5195;SDS011;2617;51.006;12.436;2022-12-18T05:29:12;6.77;;;4.70;;
5195;SDS011;2617;51.006;12.436;2022-12-18T05:34:14;8.20;;;5.10;;
5195;SDS011;2617;51.006;12.436;2022-12-18T05:39:15;7.15;;;3.42;;
5195;SDS011;2617;51.006;12.436;2022-12-18T05:44:17;6.50;;;3.10;;
5195;SDS011;2617;51.006;12.436;2022-12-18T05:49:19;3.70;;;2.00;;
5195;SDS011;2617;51.006;12.436;2022-12-18T05:54:21;2.87;;;2.58;;
5195;SDS011;2617;51.006;12.436;2022-12-18T05:59:22;2.53;;;1.73;;
5195;SDS011;2617;51.006;12.436;2022-12-18T06:04:26;2.83;;;1.87;;
5195;SDS011;2617;51.006;12.436;2022-12-18T06:09:28;2.20;;;2.00;;
5195;SDS011;2617;51.006;12.436;2022-12-18T06:14:29;3.90;;;2.43;;
5195;SDS011;2617;51.006;12.436;2022-12-18T06:19:30;2.70;;;2.50;;
5195;SDS011;2617;51.006;12.436;2022-12-18T06:24:32;4.27;;;2.27;;
5195;SDS011;2617;51.006;12.436;2022-12-18T06:29:34;2.73;;;2.30;;
5195;SDS011;2617;51.006;12.436;2022-12-18T06:34:37;2.30;;;1.80;;
5195;SDS011;2617;51.006;12.436;2022-12-18T06:39:38;6.03;;;3.60;;
5195;SDS011;2617;51.006;12.436;2022-12-18T06:44:41;18.90;;;9.05;;
5195;SDS011;2617;51.006;12.436;2022-12-18T06:49:42;25.83;;;10.67;;
5195;SDS011;2617;51.006;12.436;2022-12-18T06:54:44;11.30;;;5.70;;
5195;SDS011;2617;51.006;12.436;2022-12-18T06:59:46;11.82;;;6.75;;
5195;SDS011;2617;51.006;12.436;2022-12-18T07:04:48;14.37;;;6.70;;
5195;SDS011;2617;51.006;12.436;2022-12-18T07:09:51;13.40;;;4.70;;
5195;SDS011;2617;51.006;12.436;2022-12-18T07:14:53;6.53;;;4.20;;
5195;SDS011;2617;51.006;12.436;2022-12-18T07:19:55;7.57;;;4.40;;
5195;SDS011;2617;51.006;12.436;2022-12-18T07:24:57;4.40;;;3.20;;
5195;SDS011;2617;51.006;12.436;2022-12-18T07:29:59;2.83;;;2.62;;
5195;SDS011;2617;51.006;12.436;2022-12-18T07:35:01;2.60;;;1.90;;
5195;SDS011;2617;51.006;12.436;2022-12-18T07:40:03;5.33;;;2.80;;
5195;SDS011;2617;51.006;12.436;2022-12-18T07:45:06;5.07;;;3.87;;
5195;SDS011;2617;51.006;12.436;2022-12-18T07:50:08;5.47;;;4.13;;
5195;SDS011;2617;51.006;12.436;2022-12-18T07:55:10;9.33;;;4.90;;
5195;SDS011;2617;51.006;12.436;2022-12-18T08:00:11;8.93;;;3.30;;
5195;SDS011;2617;51.006;12.436;2022-12-18T08:05:14;3.30;;;2.17;;
5195;SDS011;2617;51.006;12.436;2022-12-18T08:10:16;3.00;;;2.70;;
5195;SDS011;2617;51.006;12.436;2022-12-18T08:15:18;5.30;;;3.03;;
5195;SDS011;2617;51.006;12.436;2022-12-18T08:20:20;3.67;;;3.17;;
5195;SDS011;2617;51.006;12.436;2022-12-18T08:25:21;8.43;;;5.33;;
5195;SDS011;2617;51.006;12.436;2022-12-18T08:30:23;8.70;;;5.20;;
5195;SDS011;2617;51.006;12.436;2022-12-18T08:35:25;2.73;;;2.40;;
5195;SDS011;2617;51.006;12.436;2022-12-18T08:40:28;3.20;;;2.90;;
5195;SDS011;2617;51.006;12.436;2022-12-18T08:45:29;3.25;;;2.97;;
5195;SDS011;2617;51.006;12.436;2022-12-18T08:50:33;4.90;;;3.20;;
5195;SDS011;2617;51.006;12.436;2022-12-18T08:55:35;3.17;;;2.87;;
5195;SDS011;2617;51.006;12.436;2022-12-18T09:00:36;2.33;;;2.03;;
5195;SDS011;2617;51.006;12.436;2022-12-18T09:05:38;3.00;;;2.77;;
5195;SDS011;2617;51.006;12.436;2022-12-18T09:10:41;4.47;;;3.90;;
5195;SDS011;2617;51.006;12.436;2022-12-18T09:15:46;9.35;;;3.87;;
5195;SDS011;2617;51.006;12.436;2022-12-18T09:20:47;5.10;;;4.40;;
5195;SDS011;2617;51.006;12.436;2022-12-18T09:25:50;6.90;;;4.10;;
5195;SDS011;2617;51.006;12.436;2022-12-18T09:30:51;5.30;;;4.03;;
5195;SDS011;2617;51.006;12.436;2022-12-18T09:35:53;5.63;;;3.50;;
5195;SDS011;2617;51.006;12.436;2022-12-18T09:40:57;4.87;;;2.80;;
5195;SDS011;2617;51.006;12.436;2022-12-18T09:46:00;4.95;;;3.25;;
5195;SDS011;2617;51.006;12.436;2022-12-18T09:51:07;2.80;;;2.60;;
5195;SDS011;2617;51.006;12.436;2022-12-18T09:56:06;1.60;;;1.50;;
5195;SDS011;2617;51.006;12.436;2022-12-18T10:01:11;3.17;;;2.70;;
5195;SDS011;2617;51.006;12.436;2022-12-18T10:06:15;2.90;;;2.57;;
5195;SDS011;2617;51.006;12.436;2022-12-18T10:22:33;2.03;;;1.90;;
5195;SDS011;2617;51.006;12.436;2022-12-18T10:27:47;4.27;;;3.40;;
5195;SDS011;2617;51.006;12.436;2022-12-18T10:32:49;2.23;;;2.07;;
5195;SDS011;2617;51.006;12.436;2022-12-18T10:43:10;5.10;;;2.78;;
5195;SDS011;2617;51.006;12.436;2022-12-18T10:53:22;3.03;;;2.77;;
5195;SDS011;2617;51.006;12.436;2022-12-18T10:58:27;7.00;;;3.30;;
5195;SDS011;2617;51.006;12.436;2022-12-18T11:03:31;4.03;;;3.50;;
5195;SDS011;2617;51.006;12.436;2022-12-18T11:08:33;3.80;;;2.30;;
5195;SDS011;2617;51.006;12.436;2022-12-18T11:13:35;3.13;;;2.43;;
5195;SDS011;2617;51.006;12.436;2022-12-18T11:18:37;7.23;;;2.57;;
5195;SDS011;2617;51.006;12.436;2022-12-18T11:23:52;5.07;;;3.13;;
5195;SDS011;2617;51.006;12.436;2022-12-18T11:29:07;12.50;;;3.50;;
5195;SDS011;2617;51.006;12.436;2022-12-18T11:34:14;2.70;;;2.50;;
5195;SDS011;2617;51.006;12.436;2022-12-18T11:39:22;4.60;;;2.60;;
5195;SDS011;2617;51.006;12.436;2022-12-18T11:44:26;2.67;;;2.25;;
5195;SDS011;2617;51.006;12.436;2022-12-18T11:49:30;2.90;;;2.70;;
5195;SDS011;2617;51.006;12.436;2022-12-18T11:54:30;3.73;;;2.60;;
5195;SDS011;2617;51.006;12.436;2022-12-18T11:59:38;5.87;;;3.22;;
5195;SDS011;2617;51.006;12.436;2022-12-18T12:04:41;4.57;;;3.10;;
5195;SDS011;2617;51.006;12.436;2022-12-18T12:15:06;9.43;;;3.90;;
5195;SDS011;2617;51.006;12.436;2022-12-18T12:35:54;5.23;;;3.27;;
5195;SDS011;2617;51.006;12.436;2022-12-18T12:41:02;3.83;;;3.17;;
5195;SDS011;2617;51.006;12.436;2022-12-18T12:46:07;5.13;;;3.50;;
5195;SDS011;2617;51.006;12.436;2022-12-18T12:51:10;7.23;;;4.10;;
5195;SDS011;2617;51.006;12.436;2022-12-18T12:56:11;7.20;;;4.93;;
5195;SDS011;2617;51.006;12.436;2022-12-18T13:01:18;6.30;;;4.70;;
5195;SDS011;2617;51.006;12.436;2022-12-18T13:06:42;7.10;;;4.43;;
5195;SDS011;2617;51.006;12.436;2022-12-18T13:11:48;6.10;;;4.50;;
5195;SDS011;2617;51.006;12.436;2022-12-18T13:32:35;7.27;;;4.60;;
5195;SDS011;2617;51.006;12.436;2022-12-18T13:37:40;6.87;;;3.80;;
5195;SDS011;2617;51.006;12.436;2022-12-18T13:42:41;7.00;;;3.90;;
5195;SDS011;2617;51.006;12.436;2022-12-18T13:47:49;7.17;;;4.63;;
5195;SDS011;2617;51.006;12.436;2022-12-18T13:52:51;13.97;;;5.23;;
5195;SDS011;2617;51.006;12.436;2022-12-18T13:58:11;14.40;;;6.70;;
5195;SDS011;2617;51.006;12.436;2022-12-18T14:03:16;10.25;;;6.07;;
5195;SDS011;2617;51.006;12.436;2022-12-18T14:08:19;23.30;;;8.90;;
5195;SDS011;2617;51.006;12.436;2022-12-18T14:18:42;19.50;;;7.57;;
5195;SDS011;2617;51.006;12.436;2022-12-18T14:23:44;20.60;;;7.10;;
5195;SDS011;2617;51.006;12.436;2022-12-18T14:28:46;22.03;;;8.77;;
5195;SDS011;2617;51.006;12.436;2022-12-18T14:33:47;20.10;;;9.20;;
5195;SDS011;2617;51.006;12.436;2022-12-18T14:38:52;32.20;;;15.10;;
5195;SDS011;2617;51.006;12.436;2022-12-18T14:43:53;30.73;;;13.73;;
5195;SDS011;2617;51.006;12.436;2022-12-18T14:48:55;18.40;;;10.13;;
5195;SDS011;2617;51.006;12.436;2022-12-18T14:53:59;8.17;;;5.90;;
5195;SDS011;2617;51.006;12.436;2022-12-18T14:59:03;13.13;;;6.53;;
5195;SDS011;2617;51.006;12.436;2022-12-18T15:04:05;14.27;;;6.07;;
5195;SDS011;2617;51.006;12.436;2022-12-18T15:14:23;9.30;;;6.13;;
5195;SDS011;2617;51.006;12.436;2022-12-18T15:19:39;21.03;;;8.50;;
5195;SDS011;2617;51.006;12.436;2022-12-18T15:24:40;23.23;;;8.80;;
5195;SDS011;2617;51.006;12.436;2022-12-18T15:29:43;14.93;;;7.67;;
5195;SDS011;2617;51.006;12.436;2022-12-18T15:34:44;12.43;;;7.03;;
5195;SDS011;2617;51.006;12.436;2022-12-18T15:39:46;15.40;;;6.60;;
5195;SDS011;2617;51.006;12.436;2022-12-18T15:44:49;14.03;;;6.20;;
5195;SDS011;2617;51.006;12.436;2022-12-18T15:49:50;7.43;;;5.00;;
5195;SDS011;2617;51.006;12.436;2022-12-18T15:54:52;19.57;;;9.57;;
5195;SDS011;2617;51.006;12.436;2022-12-18T16:00:00;17.30;;;9.60;;
5195;SDS011;2617;51.006;12.436;2022-12-18T16:05:02;15.23;;;7.57;;
5195;SDS011;2617;51.006;12.436;2022-12-18T16:10:04;13.80;;;7.13;;
5195;SDS011;2617;51.006;12.436;2022-12-18T16:15:06;18.93;;;7.90;;
5195;SDS011;2617;51.006;12.436;2022-12-18T16:20:15;14.53;;;7.07;;
5195;SDS011;2617;51.006;12.436;2022-12-18T16:25:20;34.03;;;17.83;;
5195;SDS011;2617;51.006;12.436;2022-12-18T16:30:21;48.97;;;21.57;;
5195;SDS011;2617;51.006;12.436;2022-12-18T16:35:22;32.67;;;13.50;;
5195;SDS011;2617;51.006;12.436;2022-12-18T16:40:24;16.00;;;8.73;;
5195;SDS011;2617;51.006;12.436;2022-12-18T16:45:26;14.50;;;8.50;;
5195;SDS011;2617;51.006;12.436;2022-12-18T16:50:28;13.23;;;6.70;;
5195;SDS011;2617;51.006;12.436;2022-12-18T16:55:29;9.83;;;6.70;;
5195;SDS011;2617;51.006;12.436;2022-12-18T17:00:31;17.67;;;6.60;;
5195;SDS011;2617;51.006;12.436;2022-12-18T17:05:34;29.00;;;8.95;;
5195;SDS011;2617;51.006;12.436;2022-12-18T17:10:36;19.70;;;8.57;;
5195;SDS011;2617;51.006;12.436;2022-12-18T17:15:38;16.90;;;8.00;;
5195;SDS011;2617;51.006;12.436;2022-12-18T17:20:40;22.60;;;9.23;;
5195;SDS011;2617;51.006;12.436;2022-12-18T17:25:42;14.10;;;7.97;;
5195;SDS011;2617;51.006;12.436;2022-12-18T17:30:43;19.00;;;10.20;;
5195;SDS011;2617;51.006;12.436;2022-12-18T17:35:45;17.17;;;8.50;;
5195;SDS011;2617;51.006;12.436;2022-12-18T17:40:47;19.27;;;7.77;;
5195;SDS011;2617;51.006;12.436;2022-12-18T17:45:49;8.17;;;5.93;;
5195;SDS011;2617;51.006;12.436;2022-12-18T17:50:51;10.80;;;7.17;;
5195;SDS011;2617;51.006;12.436;2022-12-18T17:55:54;18.73;;;6.63;;
5195;SDS011;2617;51.006;12.436;2022-12-18T18:00:56;25.63;;;9.77;;
5195;SDS011;2617;51.006;12.436;2022-12-18T18:05:58;46.85;;;14.60;;
5195;SDS011;2617;51.006;12.436;2022-12-18T18:11:02;22.47;;;9.57;;
5195;SDS011;2617;51.006;12.436;2022-12-18T18:16:16;13.10;;;8.17;;
5195;SDS011;2617;51.006;12.436;2022-12-18T18:21:18;11.53;;;6.20;;
5195;SDS011;2617;51.006;12.436;2022-12-18T18:26:20;23.17;;;9.50;;
5195;SDS011;2617;51.006;12.436;2022-12-18T18:31:21;13.77;;;8.00;;
5195;SDS011;2617;51.006;12.436;2022-12-18T18:36:23;14.87;;;7.40;;
5195;SDS011;2617;51.006;12.436;2022-12-18T18:41:25;15.90;;;7.20;;
5195;SDS011;2617;51.006;12.436;2022-12-18T18:46:27;9.37;;;7.03;;
5195;SDS011;2617;51.006;12.436;2022-12-18T18:51:29;18.07;;;8.37;;
5195;SDS011;2617;51.006;12.436;2022-12-18T18:56:31;19.20;;;7.70;;
5195;SDS011;2617;51.006;12.436;2022-12-18T19:01:33;10.10;;;7.13;;
5195;SDS011;2617;51.006;12.436;2022-12-18T19:06:36;15.25;;;7.30;;
5195;SDS011;2617;51.006;12.436;2022-12-18T19:11:38;12.75;;;7.12;;
5195;SDS011;2617;51.006;12.436;2022-12-18T19:16:45;14.67;;;8.77;;
5195;SDS011;2617;51.006;12.436;2022-12-18T19:21:47;11.80;;;7.60;;
5195;SDS011;2617;51.006;12.436;2022-12-18T19:26:49;10.50;;;6.80;;
5195;SDS011;2617;51.006;12.436;2022-12-18T19:31:51;15.10;;;8.03;;
5195;SDS011;2617;51.006;12.436;2022-12-18T19:36:52;9.30;;;6.47;;
5195;SDS011;2617;51.006;12.436;2022-12-18T19:41:54;11.60;;;8.10;;
5195;SDS011;2617;51.006;12.436;2022-12-18T19:46:56;13.67;;;8.20;;
5195;SDS011;2617;51.006;12.436;2022-12-18T19:51:57;29.20;;;10.73;;
5195;SDS011;2617;51.006;12.436;2022-12-18T19:56:59;13.55;;;8.05;;
5195;SDS011;2617;51.006;12.436;2022-12-18T20:02:01;15.43;;;8.50;;
5195;SDS011;2617;51.006;12.436;2022-12-18T20:07:03;15.93;;;9.70;;
5195;SDS011;2617;51.006;12.436;2022-12-18T20:12:06;24.40;;;10.00;;
5195;SDS011;2617;51.006;12.436;2022-12-18T20:17:09;25.90;;;12.20;;
5195;SDS011;2617;51.006;12.436;2022-12-18T20:22:10;26.80;;;13.27;;
5195;SDS011;2617;51.006;12.436;2022-12-18T20:27:12;24.17;;;10.77;;
5195;SDS011;2617;51.006;12.436;2022-12-18T20:32:14;17.17;;;9.50;;
5195;SDS011;2617;51.006;12.436;2022-12-18T20:37:16;24.43;;;10.17;;
5195;SDS011;2617;51.006;12.436;2022-12-18T20:42:18;14.17;;;9.10;;
5195;SDS011;2617;51.006;12.436;2022-12-18T20:47:20;14.45;;;7.05;;
5195;SDS011;2617;51.006;12.436;2022-12-18T20:52:21;35.63;;;13.23;;
5195;SDS011;2617;51.006;12.436;2022-12-18T20:57:23;33.47;;;11.73;;
5195;SDS011;2617;51.006;12.436;2022-12-18T21:02:26;18.67;;;9.20;;
5195;SDS011;2617;51.006;12.436;2022-12-18T21:07:27;19.93;;;8.90;;
5195;SDS011;2617;51.006;12.436;2022-12-18T21:12:30;22.23;;;9.00;;
5195;SDS011;2617;51.006;12.436;2022-12-18T21:17:32;19.63;;;9.90;;
5195;SDS011;2617;51.006;12.436;2022-12-18T21:22:35;16.10;;;8.50;;
5195;SDS011;2617;51.006;12.436;2022-12-18T21:27:37;17.48;;;9.23;;
5195;SDS011;2617;51.006;12.436;2022-12-18T21:32:39;18.37;;;9.97;;
5195;SDS011;2617;51.006;12.436;2022-12-18T21:37:41;18.70;;;9.00;;
5195;SDS011;2617;51.006;12.436;2022-12-18T21:42:43;18.80;;;9.50;;
5195;SDS011;2617;51.006;12.436;2022-12-18T21:47:50;18.80;;;9.10;;
5195;SDS011;2617;51.006;12.436;2022-12-18T21:52:52;16.60;;;8.70;;
5195;SDS011;2617;51.006;12.436;2022-12-18T21:57:54;38.10;;;11.17;;
5195;SDS011;2617;51.006;12.436;2022-12-18T22:02:56;15.75;;;8.30;;
5195;SDS011;2617;51.006;12.436;2022-12-18T22:07:57;9.30;;;6.77;;
5195;SDS011;2617;51.006;12.436;2022-12-18T22:12:59;11.00;;;6.77;;
5195;SDS011;2617;51.006;12.436;2022-12-18T22:18:01;12.00;;;7.90;;
5195;SDS011;2617;51.006;12.436;2022-12-18T22:23:03;11.77;;;7.20;;
5195;SDS011;2617;51.006;12.436;2022-12-18T22:28:04;14.77;;;6.83;;
5195;SDS011;2617;51.006;12.436;2022-12-18T22:33:12;10.57;;;6.80;;
5195;SDS011;2617;51.006;12.436;2022-12-18T22:38:14;15.57;;;8.87;;
5195;SDS011;2617;51.006;12.436;2022-12-18T22:43:16;12.30;;;7.63;;
5195;SDS011;2617;51.006;12.436;2022-12-18T22:48:17;15.20;;;7.30;;
5195;SDS011;2617;51.006;12.436;2022-12-18T22:53:19;16.20;;;8.10;;
5195;SDS011;2617;51.006;12.436;2022-12-18T22:58:21;14.10;;;7.90;;
5195;SDS011;2617;51.006;12.436;2022-12-18T23:03:23;18.13;;;7.70;;
5195;SDS011;2617;51.006;12.436;2022-12-18T23:08:25;12.93;;;7.20;;
5195;SDS011;2617;51.006;12.436;2022-12-18T23:13:27;13.67;;;7.53;;
5195;SDS011;2617;51.006;12.436;2022-12-18T23:18:29;17.30;;;8.33;;
5195;SDS011;2617;51.006;12.436;2022-12-18T23:23:32;11.80;;;7.30;;
5195;SDS011;2617;51.006;12.436;2022-12-18T23:28:34;21.80;;;9.10;;
5195;SDS011;2617;51.006;12.436;2022-12-18T23:33:36;13.03;;;7.80;;
5195;SDS011;2617;51.006;12.436;2022-12-18T23:38:39;15.00;;;8.63;;
5195;SDS011;2617;51.006;12.436;2022-12-18T23:43:41;20.60;;;9.00;;
5195;SDS011;2617;51.006;12.436;2022-12-18T23:48:42;20.43;;;9.60;;
5195;SDS011;2617;51.006;12.436;2022-12-18T23:53:45;17.73;;;10.43;;
5195;SDS011;2617;51.006;12.436;2022-12-18T23:58:47;18.77;;;10.10;;
